KBFR/BFR METAR and TAF weather

Enter ICAO airport designator
Station Type Date Time Source
KBFR METAR 2024/04/17 19:15 UTC NOAA

KBFR 171915Z AUTO 26015G24KT 228V288 SCT055 SCT075 25/10 A2980 RMK AO2 PWINO


Station Type Date Time Source
KBFR Decoded METAR 2024/04/17 19:15 UTC NOAA

Station name not available
Apr 17, 2024 - 03:15 PM EDT / 2024.04.17 1915 UTC
Wind: from the W (260 degrees) at 17 MPH (15 KT) gusting to 28 MPH (24 KT) (direction variable):0
Sky conditions: partly cloudy
Temperature: 77 F (25 C)
Dew Point: 50 F (10 C)
Relative Humidity: 38%
Pressure (altimeter): 29.8 in. Hg (1009 hPa)
ob: KBFR 171915Z AUTO 26015G24KT 228V288 SCT055 SCT075 25/10 A2980 RMK AO2 PWINO
cycle: 19

Station Type Date Time Source
KBFR TAF UTC NOAA

Error!

Example: see airport list